Terminal Aerodrome Forecast
Issued by NWS

Home | Current Version | Previous Version | Text Only | Print | Product List | Glossary On
Versions: 1 2 3 4 5 6 7 8 9 10 11 12 13 14 15 16 17 18
000
FTUS43 KMQT 301720
TAFSAW
TAF
KSAW 301720Z 3018/3118 03010KT P6SM SCT040
     FM302100 04005KT P6SM SCT130
     FM310300 10003KT P6SM BKN110
     FM311500 12006KT 3SM -SN SCT010 OVC060
     FM311600 12006KT 1SM -SN OVC007=

USA.gov is the U.S. government's official web portal to all federal, state and local government web resources and services.